sensor_id;sensor_type;location;lat;lon;timestamp;temperature;humidity
6662;DHT22;3367;48.714;8.994;2023-04-15T00:00:06;2.80;99.90
6662;DHT22;3367;48.714;8.994;2023-04-15T00:02:33;2.80;99.90
6662;DHT22;3367;48.714;8.994;2023-04-15T00:04:59;2.80;99.90
6662;DHT22;3367;48.714;8.994;2023-04-15T00:07:27;2.80;99.90
6662;DHT22;3367;48.714;8.994;2023-04-15T00:09:54;2.80;99.90
6662;DHT22;3367;48.714;8.994;2023-04-15T00:12:22;2.80;99.90
6662;DHT22;3367;48.714;8.994;2023-04-15T00:14:49;2.70;99.90
6662;DHT22;3367;48.714;8.994;2023-04-15T00:17:16;2.70;99.90
6662;DHT22;3367;48.714;8.994;2023-04-15T00:19:43;2.70;99.90
6662;DHT22;3367;48.714;8.994;2023-04-15T00:22:10;2.60;99.90
6662;DHT22;3367;48.714;8.994;2023-04-15T00:24:38;2.60;99.90
6662;DHT22;3367;48.714;8.994;2023-04-15T00:27:05;2.50;99.90
6662;DHT22;3367;48.714;8.994;2023-04-15T00:29:32;2.50;1.00
6662;DHT22;3367;48.714;8.994;2023-04-15T00:32:00;2.50;1.00
6662;DHT22;3367;48.714;8.994;2023-04-15T00:34:27;2.40;1.00
6662;DHT22;3367;48.714;8.994;2023-04-15T00:36:54;2.40;1.00
6662;DHT22;3367;48.714;8.994;2023-04-15T00:39:21;2.40;1.00
6662;DHT22;3367;48.714;8.994;2023-04-15T00:41:49;2.30;1.00
6662;DHT22;3367;48.714;8.994;2023-04-15T00:44:17;2.40;1.00
6662;DHT22;3367;48.714;8.994;2023-04-15T00:46:44;2.40;1.00
6662;DHT22;3367;48.714;8.994;2023-04-15T00:49:12;2.40;1.00
6662;DHT22;3367;48.714;8.994;2023-04-15T00:51:39;2.40;1.00
6662;DHT22;3367;48.714;8.994;2023-04-15T00:54:06;2.40;1.00
6662;DHT22;3367;48.714;8.994;2023-04-15T00:56:35;2.30;1.00
6662;DHT22;3367;48.714;8.994;2023-04-15T00:59:04;2.30;1.00
6662;DHT22;3367;48.714;8.994;2023-04-15T01:01:33;2.20;1.00
6662;DHT22;3367;48.714;8.994;2023-04-15T01:04:00;2.20;1.00
6662;DHT22;3367;48.714;8.994;2023-04-15T01:06:27;2.20;99.80
6662;DHT22;3367;48.714;8.994;2023-04-15T01:08:54;2.20;6.30
6662;DHT22;3367;48.714;8.994;2023-04-15T01:11:22;2.20;1.00
6662;DHT22;3367;48.714;8.994;2023-04-15T01:13:49;2.20;99.90
6662;DHT22;3367;48.714;8.994;2023-04-15T01:16:18;2.20;99.90
6662;DHT22;3367;48.714;8.994;2023-04-15T01:18:45;2.20;54.40
6662;DHT22;3367;48.714;8.994;2023-04-15T01:21:12;2.20;13.50
6662;DHT22;3367;48.714;8.994;2023-04-15T01:23:39;2.10;58.50
6662;DHT22;3367;48.714;8.994;2023-04-15T01:26:07;2.10;1.00
6662;DHT22;3367;48.714;8.994;2023-04-15T01:28:35;2.10;26.50
6662;DHT22;3367;48.714;8.994;2023-04-15T01:31:09;2.10;13.10
6662;DHT22;3367;48.714;8.994;2023-04-15T01:33:37;2.10;40.40
6662;DHT22;3367;48.714;8.994;2023-04-15T01:36:05;2.00;92.40
6662;DHT22;3367;48.714;8.994;2023-04-15T01:38:33;2.00;99.90
6662;DHT22;3367;48.714;8.994;2023-04-15T01:41:00;2.00;99.90
6662;DHT22;3367;48.714;8.994;2023-04-15T01:43:28;2.00;99.90
6662;DHT22;3367;48.714;8.994;2023-04-15T01:45:55;2.00;99.90
6662;DHT22;3367;48.714;8.994;2023-04-15T01:48:22;2.00;99.90
6662;DHT22;3367;48.714;8.994;2023-04-15T01:50:48;2.00;99.90
6662;DHT22;3367;48.714;8.994;2023-04-15T01:53:16;2.00;1.00
6662;DHT22;3367;48.714;8.994;2023-04-15T01:55:43;1.90;1.00
6662;DHT22;3367;48.714;8.994;2023-04-15T01:58:10;1.90;1.00
6662;DHT22;3367;48.714;8.994;2023-04-15T02:00:38;1.90;1.00
6662;DHT22;3367;48.714;8.994;2023-04-15T02:03:04;1.80;1.00
6662;DHT22;3367;48.714;8.994;2023-04-15T02:05:31;1.70;1.00
6662;DHT22;3367;48.714;8.994;2023-04-15T02:07:58;1.70;1.00
6662;DHT22;3367;48.714;8.994;2023-04-15T02:10:25;1.70;1.00
6662;DHT22;3367;48.714;8.994;2023-04-15T02:12:52;1.70;1.00
6662;DHT22;3367;48.714;8.994;2023-04-15T02:15:19;1.70;1.00
6662;DHT22;3367;48.714;8.994;2023-04-15T02:17:47;1.70;1.00
6662;DHT22;3367;48.714;8.994;2023-04-15T02:20:15;1.60;1.00
6662;DHT22;3367;48.714;8.994;2023-04-15T02:22:42;1.60;1.00
6662;DHT22;3367;48.714;8.994;2023-04-15T02:25:09;1.60;1.00
6662;DHT22;3367;48.714;8.994;2023-04-15T02:27:36;1.60;1.00
6662;DHT22;3367;48.714;8.994;2023-04-15T02:30:03;1.70;1.00
6662;DHT22;3367;48.714;8.994;2023-04-15T02:32:30;1.60;1.00
6662;DHT22;3367;48.714;8.994;2023-04-15T02:35:01;1.60;1.00
6662;DHT22;3367;48.714;8.994;2023-04-15T02:37:28;1.60;1.00
6662;DHT22;3367;48.714;8.994;2023-04-15T02:39:56;1.50;1.00
6662;DHT22;3367;48.714;8.994;2023-04-15T02:42:23;1.50;1.00
6662;DHT22;3367;48.714;8.994;2023-04-15T02:44:52;1.50;1.00
6662;DHT22;3367;48.714;8.994;2023-04-15T02:47:19;1.40;1.00
6662;DHT22;3367;48.714;8.994;2023-04-15T02:49:46;1.50;1.00
6662;DHT22;3367;48.714;8.994;2023-04-15T02:52:14;1.50;1.00
6662;DHT22;3367;48.714;8.994;2023-04-15T02:54:40;1.50;1.00
6662;DHT22;3367;48.714;8.994;2023-04-15T02:57:07;1.40;1.00
6662;DHT22;3367;48.714;8.994;2023-04-15T02:59:36;1.40;1.00
6662;DHT22;3367;48.714;8.994;2023-04-15T03:02:03;1.30;1.00
6662;DHT22;3367;48.714;8.994;2023-04-15T03:04:32;1.20;1.00
6662;DHT22;3367;48.714;8.994;2023-04-15T03:06:59;1.20;1.00
6662;DHT22;3367;48.714;8.994;2023-04-15T03:09:27;1.20;1.00
6662;DHT22;3367;48.714;8.994;2023-04-15T03:11:54;1.20;99.90
6662;DHT22;3367;48.714;8.994;2023-04-15T03:14:21;1.20;1.00
6662;DHT22;3367;48.714;8.994;2023-04-15T03:16:48;1.20;29.10
6662;DHT22;3367;48.714;8.994;2023-04-15T03:19:15;1.20;99.90
6662;DHT22;3367;48.714;8.994;2023-04-15T03:21:42;1.20;99.90
6662;DHT22;3367;48.714;8.994;2023-04-15T03:24:08;1.10;99.90
6662;DHT22;3367;48.714;8.994;2023-04-15T03:26:36;1.20;99.90
6662;DHT22;3367;48.714;8.994;2023-04-15T03:29:03;1.10;83.90
6662;DHT22;3367;48.714;8.994;2023-04-15T03:31:30;1.10;99.40
6662;DHT22;3367;48.714;8.994;2023-04-15T03:33:56;1.10;99.90
6662;DHT22;3367;48.714;8.994;2023-04-15T03:36:23;1.00;99.90
6662;DHT22;3367;48.714;8.994;2023-04-15T03:38:50;1.10;99.90
6662;DHT22;3367;48.714;8.994;2023-04-15T03:41:17;1.10;99.90
6662;DHT22;3367;48.714;8.994;2023-04-15T03:43:45;1.10;99.90
6662;DHT22;3367;48.714;8.994;2023-04-15T03:46:12;1.00;99.90
6662;DHT22;3367;48.714;8.994;2023-04-15T03:48:39;1.00;99.90
6662;DHT22;3367;48.714;8.994;2023-04-15T03:51:05;1.00;99.90
6662;DHT22;3367;48.714;8.994;2023-04-15T03:53:32;1.00;80.00
6662;DHT22;3367;48.714;8.994;2023-04-15T03:55:59;1.00;99.90
6662;DHT22;3367;48.714;8.994;2023-04-15T03:58:26;1.00;99.90
6662;DHT22;3367;48.714;8.994;2023-04-15T04:00:54;1.00;99.90
6662;DHT22;3367;48.714;8.994;2023-04-15T04:03:20;1.00;99.90
6662;DHT22;3367;48.714;8.994;2023-04-15T04:05:47;1.00;99.90
6662;DHT22;3367;48.714;8.994;2023-04-15T04:08:14;1.00;99.90
6662;DHT22;3367;48.714;8.994;2023-04-15T04:10:41;1.00;99.90
6662;DHT22;3367;48.714;8.994;2023-04-15T04:13:08;1.00;99.90
6662;DHT22;3367;48.714;8.994;2023-04-15T04:15:34;1.00;99.90
6662;DHT22;3367;48.714;8.994;2023-04-15T04:18:02;1.00;99.90
6662;DHT22;3367;48.714;8.994;2023-04-15T04:20:29;1.00;99.90
6662;DHT22;3367;48.714;8.994;2023-04-15T04:22:56;1.00;99.90
6662;DHT22;3367;48.714;8.994;2023-04-15T04:25:23;1.00;99.90
6662;DHT22;3367;48.714;8.994;2023-04-15T04:27:50;1.00;99.90
6662;DHT22;3367;48.714;8.994;2023-04-15T04:30:17;1.00;99.90
6662;DHT22;3367;48.714;8.994;2023-04-15T04:32:44;1.00;99.90
6662;DHT22;3367;48.714;8.994;2023-04-15T04:35:12;1.10;99.90
6662;DHT22;3367;48.714;8.994;2023-04-15T04:37:39;1.00;99.90
6662;DHT22;3367;48.714;8.994;2023-04-15T04:40:06;1.10;99.90
6662;DHT22;3367;48.714;8.994;2023-04-15T04:42:33;1.10;99.90
6662;DHT22;3367;48.714;8.994;2023-04-15T04:45:00;1.10;99.90
6662;DHT22;3367;48.714;8.994;2023-04-15T04:47:27;1.20;99.90
6662;DHT22;3367;48.714;8.994;2023-04-15T04:49:54;1.10;99.90
6662;DHT22;3367;48.714;8.994;2023-04-15T04:52:22;1.10;99.90
6662;DHT22;3367;48.714;8.994;2023-04-15T04:54:49;1.20;99.90
6662;DHT22;3367;48.714;8.994;2023-04-15T04:57:16;1.20;99.90
6662;DHT22;3367;48.714;8.994;2023-04-15T04:59:42;1.20;95.00
6662;DHT22;3367;48.714;8.994;2023-04-15T05:02:09;1.20;31.90
6662;DHT22;3367;48.714;8.994;2023-04-15T05:04:36;1.20;1.00
6662;DHT22;3367;48.714;8.994;2023-04-15T05:07:02;1.30;38.20
6662;DHT22;3367;48.714;8.994;2023-04-15T05:09:30;1.30;1.00
6662;DHT22;3367;48.714;8.994;2023-04-15T05:12:00;1.30;1.00
6662;DHT22;3367;48.714;8.994;2023-04-15T05:14:27;1.30;1.00
6662;DHT22;3367;48.714;8.994;2023-04-15T05:16:53;1.40;1.00
6662;DHT22;3367;48.714;8.994;2023-04-15T05:19:20;1.40;1.00
6662;DHT22;3367;48.714;8.994;2023-04-15T05:21:47;1.50;1.00
6662;DHT22;3367;48.714;8.994;2023-04-15T05:24:13;1.50;1.00
6662;DHT22;3367;48.714;8.994;2023-04-15T05:26:42;1.60;1.00
6662;DHT22;3367;48.714;8.994;2023-04-15T05:29:09;1.60;1.00
6662;DHT22;3367;48.714;8.994;2023-04-15T05:31:36;1.60;1.00
6662;DHT22;3367;48.714;8.994;2023-04-15T05:34:03;1.60;1.00
6662;DHT22;3367;48.714;8.994;2023-04-15T05:36:29;1.80;1.00
6662;DHT22;3367;48.714;8.994;2023-04-15T05:38:56;2.00;1.00
6662;DHT22;3367;48.714;8.994;2023-04-15T05:41:23;2.30;1.00
6662;DHT22;3367;48.714;8.994;2023-04-15T05:43:51;2.60;1.00
6662;DHT22;3367;48.714;8.994;2023-04-15T05:46:18;3.20;1.00
6662;DHT22;3367;48.714;8.994;2023-04-15T05:48:45;3.80;1.00
6662;DHT22;3367;48.714;8.994;2023-04-15T05:51:11;4.40;99.90
6662;DHT22;3367;48.714;8.994;2023-04-15T05:53:38;4.90;1.00
6662;DHT22;3367;48.714;8.994;2023-04-15T05:56:06;5.30;1.00
6662;DHT22;3367;48.714;8.994;2023-04-15T05:58:33;5.30;1.00
6662;DHT22;3367;48.714;8.994;2023-04-15T06:01:01;5.40;1.00
6662;DHT22;3367;48.714;8.994;2023-04-15T06:03:28;5.20;99.90
6662;DHT22;3367;48.714;8.994;2023-04-15T06:05:55;5.00;64.50
6662;DHT22;3367;48.714;8.994;2023-04-15T06:08:21;5.10;88.40
6662;DHT22;3367;48.714;8.994;2023-04-15T06:10:48;5.20;90.80
6662;DHT22;3367;48.714;8.994;2023-04-15T06:13:15;5.40;66.70
6662;DHT22;3367;48.714;8.994;2023-04-15T06:15:42;5.70;37.50
6662;DHT22;3367;48.714;8.994;2023-04-15T06:18:10;5.90;15.30
6662;DHT22;3367;48.714;8.994;2023-04-15T06:20:37;6.10;1.00
6662;DHT22;3367;48.714;8.994;2023-04-15T06:23:04;6.20;1.00
6662;DHT22;3367;48.714;8.994;2023-04-15T06:25:31;6.30;1.00
6662;DHT22;3367;48.714;8.994;2023-04-15T06:27:58;6.40;1.00
6662;DHT22;3367;48.714;8.994;2023-04-15T06:30:25;6.70;1.00
6662;DHT22;3367;48.714;8.994;2023-04-15T06:35:21;7.20;1.00
6662;DHT22;3367;48.714;8.994;2023-04-15T06:37:47;7.40;1.00
6662;DHT22;3367;48.714;8.994;2023-04-15T06:40:14;7.70;1.00
6662;DHT22;3367;48.714;8.994;2023-04-15T06:42:41;7.80;1.00
6662;DHT22;3367;48.714;8.994;2023-04-15T06:45:08;8.10;1.00
6662;DHT22;3367;48.714;8.994;2023-04-15T06:47:35;8.10;1.00
6662;DHT22;3367;48.714;8.994;2023-04-15T06:50:02;8.30;1.00
6662;DHT22;3367;48.714;8.994;2023-04-15T06:52:30;8.30;1.00
6662;DHT22;3367;48.714;8.994;2023-04-15T06:54:57;8.20;1.00
6662;DHT22;3367;48.714;8.994;2023-04-15T06:57:25;8.30;1.00
6662;DHT22;3367;48.714;8.994;2023-04-15T06:59:53;8.40;1.00
6662;DHT22;3367;48.714;8.994;2023-04-15T07:02:20;8.70;1.00
6662;DHT22;3367;48.714;8.994;2023-04-15T07:04:46;9.00;1.00
6662;DHT22;3367;48.714;8.994;2023-04-15T07:07:13;9.20;1.00
6662;DHT22;3367;48.714;8.994;2023-04-15T07:09:43;9.30;1.00
6662;DHT22;3367;48.714;8.994;2023-04-15T07:12:10;9.60;1.00
6662;DHT22;3367;48.714;8.994;2023-04-15T07:14:36;9.80;1.00
6662;DHT22;3367;48.714;8.994;2023-04-15T07:17:03;10.20;1.00
6662;DHT22;3367;48.714;8.994;2023-04-15T07:19:30;10.30;1.00
6662;DHT22;3367;48.714;8.994;2023-04-15T07:21:56;10.50;1.00
6662;DHT22;3367;48.714;8.994;2023-04-15T07:24:23;10.60;1.00
6662;DHT22;3367;48.714;8.994;2023-04-15T07:26:52;11.00;1.00
6662;DHT22;3367;48.714;8.994;2023-04-15T07:29:19;11.40;1.00
6662;DHT22;3367;48.714;8.994;2023-04-15T07:31:46;11.50;1.00
6662;DHT22;3367;48.714;8.994;2023-04-15T07:34:12;11.50;1.00
6662;DHT22;3367;48.714;8.994;2023-04-15T07:36:39;11.50;1.00
6662;DHT22;3367;48.714;8.994;2023-04-15T07:39:06;11.50;1.00
6662;DHT22;3367;48.714;8.994;2023-04-15T07:41:33;11.60;1.00
6662;DHT22;3367;48.714;8.994;2023-04-15T07:44:01;11.60;1.00
6662;DHT22;3367;48.714;8.994;2023-04-15T07:46:28;11.30;1.00
6662;DHT22;3367;48.714;8.994;2023-04-15T07:48:55;11.50;1.00
6662;DHT22;3367;48.714;8.994;2023-04-15T07:51:21;11.50;1.00
6662;DHT22;3367;48.714;8.994;2023-04-15T07:53:49;11.80;1.00
6662;DHT22;3367;48.714;8.994;2023-04-15T07:56:16;12.10;1.00
6662;DHT22;3367;48.714;8.994;2023-04-15T07:58:42;12.10;1.00
6662;DHT22;3367;48.714;8.994;2023-04-15T08:01:10;12.20;1.00
6662;DHT22;3367;48.714;8.994;2023-04-15T08:03:37;12.40;1.00
6662;DHT22;3367;48.714;8.994;2023-04-15T08:06:04;12.40;1.00
6662;DHT22;3367;48.714;8.994;2023-04-15T08:08:31;12.50;1.00
6662;DHT22;3367;48.714;8.994;2023-04-15T08:10:58;12.40;1.00
6662;DHT22;3367;48.714;8.994;2023-04-15T08:13:25;12.50;1.00
6662;DHT22;3367;48.714;8.994;2023-04-15T08:16:15;12.50;1.00
6662;DHT22;3367;48.714;8.994;2023-04-15T08:18:41;12.60;1.00
6662;DHT22;3367;48.714;8.994;2023-04-15T08:21:09;12.60;1.00
6662;DHT22;3367;48.714;8.994;2023-04-15T08:23:35;12.60;1.00
6662;DHT22;3367;48.714;8.994;2023-04-15T08:26:03;12.60;1.00
6662;DHT22;3367;48.714;8.994;2023-04-15T08:28:29;13.00;1.00
6662;DHT22;3367;48.714;8.994;2023-04-15T08:30:56;13.20;1.00
6662;DHT22;3367;48.714;8.994;2023-04-15T08:33:24;13.20;1.00
6662;DHT22;3367;48.714;8.994;2023-04-15T08:35:51;13.30;1.00
6662;DHT22;3367;48.714;8.994;2023-04-15T08:38:17;13.40;1.00
6662;DHT22;3367;48.714;8.994;2023-04-15T08:40:45;13.50;1.00
6662;DHT22;3367;48.714;8.994;2023-04-15T08:43:15;13.50;1.00
6662;DHT22;3367;48.714;8.994;2023-04-15T08:45:43;13.30;1.00
6662;DHT22;3367;48.714;8.994;2023-04-15T08:48:13;13.50;1.00
6662;DHT22;3367;48.714;8.994;2023-04-15T08:50:42;13.70;1.00
6662;DHT22;3367;48.714;8.994;2023-04-15T08:53:09;13.50;1.00
6662;DHT22;3367;48.714;8.994;2023-04-15T08:55:41;13.60;1.00
6662;DHT22;3367;48.714;8.994;2023-04-15T08:58:09;13.60;1.00
6662;DHT22;3367;48.714;8.994;2023-04-15T09:00:37;13.50;1.00
6662;DHT22;3367;48.714;8.994;2023-04-15T09:03:04;13.50;1.00
6662;DHT22;3367;48.714;8.994;2023-04-15T09:05:31;13.30;1.00
6662;DHT22;3367;48.714;8.994;2023-04-15T09:08:00;13.30;1.00
6662;DHT22;3367;48.714;8.994;2023-04-15T09:10:27;13.40;1.00
6662;DHT22;3367;48.714;8.994;2023-04-15T09:12:54;13.60;1.00
6662;DHT22;3367;48.714;8.994;2023-04-15T09:15:24;13.60;1.00
6662;DHT22;3367;48.714;8.994;2023-04-15T09:17:51;13.90;1.00
6662;DHT22;3367;48.714;8.994;2023-04-15T09:20:18;14.10;1.00
6662;DHT22;3367;48.714;8.994;2023-04-15T09:22:47;14.30;1.00
6662;DHT22;3367;48.714;8.994;2023-04-15T09:25:28;14.50;1.00
6662;DHT22;3367;48.714;8.994;2023-04-15T09:27:56;14.60;1.00
6662;DHT22;3367;48.714;8.994;2023-04-15T09:30:23;14.50;1.00
6662;DHT22;3367;48.714;8.994;2023-04-15T09:32:51;14.00;1.00
6662;DHT22;3367;48.714;8.994;2023-04-15T09:35:18;13.70;1.00
6662;DHT22;3367;48.714;8.994;2023-04-15T09:37:45;13.70;1.00
6662;DHT22;3367;48.714;8.994;2023-04-15T09:40:12;13.60;1.00
6662;DHT22;3367;48.714;8.994;2023-04-15T09:42:55;13.40;1.00
6662;DHT22;3367;48.714;8.994;2023-04-15T09:45:23;13.30;1.00
6662;DHT22;3367;48.714;8.994;2023-04-15T09:47:50;13.40;1.00
6662;DHT22;3367;48.714;8.994;2023-04-15T09:50:18;13.60;1.00
6662;DHT22;3367;48.714;8.994;2023-04-15T09:52:46;14.20;1.00
6662;DHT22;3367;48.714;8.994;2023-04-15T09:55:13;14.40;1.00
6662;DHT22;3367;48.714;8.994;2023-04-15T09:57:40;14.40;1.00
6662;DHT22;3367;48.714;8.994;2023-04-15T10:00:10;14.10;1.00
6662;DHT22;3367;48.714;8.994;2023-04-15T10:02:39;14.40;1.00
6662;DHT22;3367;48.714;8.994;2023-04-15T10:05:07;14.30;1.00
6662;DHT22;3367;48.714;8.994;2023-04-15T10:07:37;14.20;1.00
6662;DHT22;3367;48.714;8.994;2023-04-15T10:10:06;14.30;1.00
6662;DHT22;3367;48.714;8.994;2023-04-15T10:12:36;14.10;1.00
6662;DHT22;3367;48.714;8.994;2023-04-15T10:15:04;14.30;1.00
6662;DHT22;3367;48.714;8.994;2023-04-15T10:17:34;14.60;1.00
6662;DHT22;3367;48.714;8.994;2023-04-15T10:20:02;14.40;1.00
6662;DHT22;3367;48.714;8.994;2023-04-15T10:22:30;14.80;1.00
6662;DHT22;3367;48.714;8.994;2023-04-15T10:24:58;14.80;1.00
6662;DHT22;3367;48.714;8.994;2023-04-15T10:27:26;14.90;1.00
6662;DHT22;3367;48.714;8.994;2023-04-15T10:29:53;14.40;1.00
6662;DHT22;3367;48.714;8.994;2023-04-15T10:32:21;14.40;1.00
6662;DHT22;3367;48.714;8.994;2023-04-15T10:34:51;14.50;1.00
6662;DHT22;3367;48.714;8.994;2023-04-15T10:37:20;14.20;1.00
6662;DHT22;3367;48.714;8.994;2023-04-15T10:39:48;14.30;1.00
6662;DHT22;3367;48.714;8.994;2023-04-15T10:42:16;14.30;1.00
6662;DHT22;3367;48.714;8.994;2023-04-15T10:44:45;14.40;1.00
6662;DHT22;3367;48.714;8.994;2023-04-15T11:01:20;13.50;1.00
6662;DHT22;3367;48.714;8.994;2023-04-15T11:03:48;13.30;1.00
6662;DHT22;3367;48.714;8.994;2023-04-15T11:06:15;13.20;1.00
6662;DHT22;3367;48.714;8.994;2023-04-15T11:08:59;13.00;1.00
6662;DHT22;3367;48.714;8.994;2023-04-15T11:12:04;12.90;1.00
6662;DHT22;3367;48.714;8.994;2023-04-15T11:14:32;13.00;1.00
6662;DHT22;3367;48.714;8.994;2023-04-15T11:17:01;13.10;1.00
6662;DHT22;3367;48.714;8.994;2023-04-15T11:19:35;13.20;1.00
6662;DHT22;3367;48.714;8.994;2023-04-15T11:22:06;13.20;1.00
6662;DHT22;3367;48.714;8.994;2023-04-15T11:24:33;13.30;1.00
6662;DHT22;3367;48.714;8.994;2023-04-15T11:27:01;13.50;1.00
6662;DHT22;3367;48.714;8.994;2023-04-15T11:29:28;13.40;1.00
6662;DHT22;3367;48.714;8.994;2023-04-15T11:32:05;13.10;1.00
6662;DHT22;3367;48.714;8.994;2023-04-15T11:34:32;13.10;1.00
6662;DHT22;3367;48.714;8.994;2023-04-15T11:37:02;13.00;1.00
6662;DHT22;3367;48.714;8.994;2023-04-15T11:39:29;13.00;1.00
6662;DHT22;3367;48.714;8.994;2023-04-15T11:41:55;12.90;1.00
6662;DHT22;3367;48.714;8.994;2023-04-15T11:44:22;13.00;1.00
6662;DHT22;3367;48.714;8.994;2023-04-15T11:46:49;13.20;1.00
6662;DHT22;3367;48.714;8.994;2023-04-15T11:49:27;13.30;1.00
6662;DHT22;3367;48.714;8.994;2023-04-15T11:51:54;13.40;1.00
6662;DHT22;3367;48.714;8.994;2023-04-15T11:54:21;13.30;1.00
6662;DHT22;3367;48.714;8.994;2023-04-15T11:56:51;13.60;1.00
6662;DHT22;3367;48.714;8.994;2023-04-15T11:59:19;13.80;1.00
6662;DHT22;3367;48.714;8.994;2023-04-15T12:01:45;13.90;1.00
6662;DHT22;3367;48.714;8.994;2023-04-15T12:04:13;13.90;1.00
6662;DHT22;3367;48.714;8.994;2023-04-15T12:06:42;13.70;1.00
6662;DHT22;3367;48.714;8.994;2023-04-15T12:09:10;13.90;1.00
6662;DHT22;3367;48.714;8.994;2023-04-15T12:11:43;13.90;1.00
6662;DHT22;3367;48.714;8.994;2023-04-15T12:14:23;13.70;1.00
6662;DHT22;3367;48.714;8.994;2023-04-15T12:16:52;13.80;1.00
6662;DHT22;3367;48.714;8.994;2023-04-15T12:19:22;13.70;1.00
6662;DHT22;3367;48.714;8.994;2023-04-15T12:21:54;13.60;1.00
6662;DHT22;3367;48.714;8.994;2023-04-15T12:24:22;13.40;1.00
6662;DHT22;3367;48.714;8.994;2023-04-15T12:26:50;13.40;1.00
6662;DHT22;3367;48.714;8.994;2023-04-15T12:29:18;13.50;1.00
6662;DHT22;3367;48.714;8.994;2023-04-15T12:31:47;13.40;1.00
6662;DHT22;3367;48.714;8.994;2023-04-15T12:34:16;13.30;1.00
6662;DHT22;3367;48.714;8.994;2023-04-15T12:36:44;13.00;1.00
6662;DHT22;3367;48.714;8.994;2023-04-15T12:39:13;13.10;1.00
6662;DHT22;3367;48.714;8.994;2023-04-15T12:41:41;12.90;1.00
6662;DHT22;3367;48.714;8.994;2023-04-15T12:44:08;12.90;1.00
6662;DHT22;3367;48.714;8.994;2023-04-15T12:46:35;13.30;1.00
6662;DHT22;3367;48.714;8.994;2023-04-15T12:49:01;13.40;1.00
6662;DHT22;3367;48.714;8.994;2023-04-15T12:51:29;13.30;1.00
6662;DHT22;3367;48.714;8.994;2023-04-15T12:53:56;13.50;1.00
6662;DHT22;3367;48.714;8.994;2023-04-15T12:56:24;13.70;1.00
6662;DHT22;3367;48.714;8.994;2023-04-15T12:58:51;14.10;1.00
6662;DHT22;3367;48.714;8.994;2023-04-15T13:01:18;14.30;1.00
6662;DHT22;3367;48.714;8.994;2023-04-15T13:03:45;14.20;1.00
6662;DHT22;3367;48.714;8.994;2023-04-15T13:06:12;13.70;1.00
6662;DHT22;3367;48.714;8.994;2023-04-15T13:08:39;13.00;1.00
6662;DHT22;3367;48.714;8.994;2023-04-15T13:11:06;12.70;1.00
6662;DHT22;3367;48.714;8.994;2023-04-15T13:13:34;12.60;1.00
6662;DHT22;3367;48.714;8.994;2023-04-15T13:16:00;12.50;1.00
6662;DHT22;3367;48.714;8.994;2023-04-15T13:18:27;12.50;1.00
6662;DHT22;3367;48.714;8.994;2023-04-15T13:20:55;12.40;1.00
6662;DHT22;3367;48.714;8.994;2023-04-15T13:23:22;12.30;1.00
6662;DHT22;3367;48.714;8.994;2023-04-15T13:25:49;12.30;1.00
6662;DHT22;3367;48.714;8.994;2023-04-15T13:28:15;12.20;1.00
6662;DHT22;3367;48.714;8.994;2023-04-15T13:30:43;12.10;1.00
6662;DHT22;3367;48.714;8.994;2023-04-15T13:33:11;11.90;1.00
6662;DHT22;3367;48.714;8.994;2023-04-15T13:35:38;11.70;1.00
6662;DHT22;3367;48.714;8.994;2023-04-15T13:38:05;11.70;1.00
6662;DHT22;3367;48.714;8.994;2023-04-15T13:40:32;11.50;1.00
6662;DHT22;3367;48.714;8.994;2023-04-15T13:42:59;11.30;1.00
6662;DHT22;3367;48.714;8.994;2023-04-15T13:45:26;11.20;1.00
6662;DHT22;3367;48.714;8.994;2023-04-15T13:47:54;11.10;1.00
6662;DHT22;3367;48.714;8.994;2023-04-15T13:50:21;11.10;1.00
6662;DHT22;3367;48.714;8.994;2023-04-15T13:52:48;11.20;1.00
6662;DHT22;3367;48.714;8.994;2023-04-15T13:55:15;11.40;1.00
6662;DHT22;3367;48.714;8.994;2023-04-15T13:57:42;11.60;1.00
6662;DHT22;3367;48.714;8.994;2023-04-15T14:00:09;11.80;1.00
6662;DHT22;3367;48.714;8.994;2023-04-15T14:02:36;11.90;1.00
6662;DHT22;3367;48.714;8.994;2023-04-15T14:05:05;12.10;1.00
6662;DHT22;3367;48.714;8.994;2023-04-15T14:07:32;12.30;1.00
6662;DHT22;3367;48.714;8.994;2023-04-15T14:09:59;12.30;1.00
6662;DHT22;3367;48.714;8.994;2023-04-15T14:12:26;12.40;1.00
6662;DHT22;3367;48.714;8.994;2023-04-15T14:14:53;12.70;1.00
6662;DHT22;3367;48.714;8.994;2023-04-15T14:17:19;12.70;1.00
6662;DHT22;3367;48.714;8.994;2023-04-15T14:19:46;12.60;1.00
6662;DHT22;3367;48.714;8.994;2023-04-15T14:22:14;12.40;1.00
6662;DHT22;3367;48.714;8.994;2023-04-15T14:24:43;12.20;1.00
6662;DHT22;3367;48.714;8.994;2023-04-15T14:27:09;12.20;1.00
6662;DHT22;3367;48.714;8.994;2023-04-15T14:29:37;12.00;1.00
6662;DHT22;3367;48.714;8.994;2023-04-15T14:32:04;11.80;1.00
6662;DHT22;3367;48.714;8.994;2023-04-15T14:34:31;11.60;1.00
6662;DHT22;3367;48.714;8.994;2023-04-15T14:36:58;11.70;1.00
6662;DHT22;3367;48.714;8.994;2023-04-15T14:39:26;11.70;1.00
6662;DHT22;3367;48.714;8.994;2023-04-15T14:41:52;11.70;1.00
6662;DHT22;3367;48.714;8.994;2023-04-15T14:44:20;11.60;1.00
6662;DHT22;3367;48.714;8.994;2023-04-15T14:46:46;11.40;1.00
6662;DHT22;3367;48.714;8.994;2023-04-15T14:49:13;11.30;1.00
6662;DHT22;3367;48.714;8.994;2023-04-15T14:51:41;11.20;1.00
6662;DHT22;3367;48.714;8.994;2023-04-15T14:54:10;11.10;1.00
6662;DHT22;3367;48.714;8.994;2023-04-15T14:56:38;11.10;1.00
6662;DHT22;3367;48.714;8.994;2023-04-15T14:59:05;11.10;1.00
6662;DHT22;3367;48.714;8.994;2023-04-15T15:01:32;11.10;1.00
6662;DHT22;3367;48.714;8.994;2023-04-15T15:03:59;11.10;1.00
6662;DHT22;3367;48.714;8.994;2023-04-15T15:06:26;11.00;1.00
6662;DHT22;3367;48.714;8.994;2023-04-15T15:08:53;11.00;1.00
6662;DHT22;3367;48.714;8.994;2023-04-15T15:11:20;11.00;1.00
6662;DHT22;3367;48.714;8.994;2023-04-15T15:13:48;10.90;1.00
6662;DHT22;3367;48.714;8.994;2023-04-15T15:16:14;10.90;1.00
6662;DHT22;3367;48.714;8.994;2023-04-15T15:18:41;10.90;1.00
6662;DHT22;3367;48.714;8.994;2023-04-15T15:21:08;10.90;1.00
6662;DHT22;3367;48.714;8.994;2023-04-15T15:23:34;10.80;1.00
6662;DHT22;3367;48.714;8.994;2023-04-15T15:26:01;10.80;1.00
6662;DHT22;3367;48.714;8.994;2023-04-15T15:28:28;10.90;1.00
6662;DHT22;3367;48.714;8.994;2023-04-15T15:30:56;10.80;1.00
6662;DHT22;3367;48.714;8.994;2023-04-15T15:33:23;10.80;1.00
6662;DHT22;3367;48.714;8.994;2023-04-15T15:35:50;10.80;1.00
6662;DHT22;3367;48.714;8.994;2023-04-15T15:38:17;10.80;1.00
6662;DHT22;3367;48.714;8.994;2023-04-15T15:40:44;10.80;1.00
6662;DHT22;3367;48.714;8.994;2023-04-15T15:43:17;10.90;1.00
6662;DHT22;3367;48.714;8.994;2023-04-15T15:45:43;11.00;1.00
6662;DHT22;3367;48.714;8.994;2023-04-15T15:48:12;11.00;1.00
6662;DHT22;3367;48.714;8.994;2023-04-15T15:50:38;11.00;1.00
6662;DHT22;3367;48.714;8.994;2023-04-15T15:53:05;10.90;1.00
6662;DHT22;3367;48.714;8.994;2023-04-15T15:55:32;10.90;1.00
6662;DHT22;3367;48.714;8.994;2023-04-15T15:57:59;10.80;1.00
6662;DHT22;3367;48.714;8.994;2023-04-15T16:00:26;10.70;1.00
6662;DHT22;3367;48.714;8.994;2023-04-15T16:02:54;10.70;1.00
6662;DHT22;3367;48.714;8.994;2023-04-15T16:05:23;10.70;1.00
6662;DHT22;3367;48.714;8.994;2023-04-15T16:07:50;10.70;1.00
6662;DHT22;3367;48.714;8.994;2023-04-15T16:10:17;10.70;1.00
6662;DHT22;3367;48.714;8.994;2023-04-15T16:12:43;10.90;1.00
6662;DHT22;3367;48.714;8.994;2023-04-15T16:15:11;10.80;1.00
6662;DHT22;3367;48.714;8.994;2023-04-15T16:17:38;10.80;1.00
6662;DHT22;3367;48.714;8.994;2023-04-15T16:20:06;10.80;1.00
6662;DHT22;3367;48.714;8.994;2023-04-15T16:22:35;10.80;1.00
6662;DHT22;3367;48.714;8.994;2023-04-15T16:25:02;10.90;1.00
6662;DHT22;3367;48.714;8.994;2023-04-15T16:27:30;10.80;1.00
6662;DHT22;3367;48.714;8.994;2023-04-15T16:29:57;10.70;1.00
6662;DHT22;3367;48.714;8.994;2023-04-15T16:32:23;10.60;1.00
6662;DHT22;3367;48.714;8.994;2023-04-15T16:34:51;10.50;1.00
6662;DHT22;3367;48.714;8.994;2023-04-15T16:37:19;10.40;1.00
6662;DHT22;3367;48.714;8.994;2023-04-15T16:39:47;10.40;1.00